sensor_id;sensor_type;location;lat;lon;timestamp;pressure;altitude;pressure_sealevel;temperature;humidity
71938;BME280;59810;48.800;9.086;2023-07-31T00:01:03;97689.63;;;16.36;67.38
71938;BME280;59810;48.800;9.086;2023-07-31T00:03:28;97689.69;;;16.31;67.33
71938;BME280;59810;48.800;9.086;2023-07-31T00:05:53;97698.66;;;16.31;67.07
71938;BME280;59810;48.800;9.086;2023-07-31T00:08:18;97691.34;;;16.27;68.67
71938;BME280;59810;48.800;9.086;2023-07-31T00:10:44;97693.25;;;16.26;67.14
71938;BME280;59810;48.800;9.086;2023-07-31T00:13:09;97691.34;;;16.27;67.68
71938;BME280;59810;48.800;9.086;2023-07-31T00:15:34;97696.53;;;16.23;67.44
71938;BME280;59810;48.800;9.086;2023-07-31T00:18:00;97700.97;;;16.14;68.65
71938;BME280;59810;48.800;9.086;2023-07-31T00:20:26;97696.09;;;16.11;68.52
71938;BME280;59810;48.800;9.086;2023-07-31T00:22:51;97685.47;;;16.09;68.08
71938;BME280;59810;48.800;9.086;2023-07-31T00:25:17;97697.72;;;16.12;68.13
71938;BME280;59810;48.800;9.086;2023-07-31T00:27:42;97691.97;;;16.13;68.07
71938;BME280;59810;48.800;9.086;2023-07-31T00:30:10;97688.97;;;16.15;67.80
71938;BME280;59810;48.800;9.086;2023-07-31T00:32:35;97683.81;;;16.13;68.14
71938;BME280;59810;48.800;9.086;2023-07-31T00:35:01;97689.25;;;16.13;68.51
71938;BME280;59810;48.800;9.086;2023-07-31T00:37:27;97694.16;;;16.11;68.46
71938;BME280;59810;48.800;9.086;2023-07-31T00:39:52;97683.53;;;16.15;67.95
71938;BME280;59810;48.800;9.086;2023-07-31T00:42:17;97681.91;;;16.14;68.31
71938;BME280;59810;48.800;9.086;2023-07-31T00:44:43;97690.91;;;16.09;68.62
71938;BME280;59810;48.800;9.086;2023-07-31T00:47:08;97678.13;;;16.10;67.72
71938;BME280;59810;48.800;9.086;2023-07-31T00:49:33;97683.28;;;16.11;67.85
71938;BME280;59810;48.800;9.086;2023-07-31T00:51:59;97682.22;;;16.07;68.07
71938;BME280;59810;48.800;9.086;2023-07-31T00:54:25;97685.22;;;16.06;68.62
71938;BME280;59810;48.800;9.086;2023-07-31T00:56:52;97689.06;;;16.05;67.82
71938;BME280;59810;48.800;9.086;2023-07-31T00:59:18;97687.66;;;16.07;68.08
71938;BME280;59810;48.800;9.086;2023-07-31T01:01:44;97689.88;;;16.05;68.14
71938;BME280;59810;48.800;9.086;2023-07-31T01:04:10;97688.53;;;16.03;68.04
71938;BME280;59810;48.800;9.086;2023-07-31T01:06:44;97692.34;;;16.02;68.37
71938;BME280;59810;48.800;9.086;2023-07-31T01:09:20;97692.91;;;15.99;68.56
71938;BME280;59810;48.800;9.086;2023-07-31T01:11:52;97684.50;;;15.95;68.81
71938;BME280;59810;48.800;9.086;2023-07-31T01:14:17;97678.50;;;15.93;69.34
71938;BME280;59810;48.800;9.086;2023-07-31T01:16:43;97676.34;;;15.90;69.29
71938;BME280;59810;48.800;9.086;2023-07-31T01:19:09;97673.38;;;15.86;69.72
71938;BME280;59810;48.800;9.086;2023-07-31T01:21:41;97670.69;;;15.81;70.29
71938;BME280;59810;48.800;9.086;2023-07-31T01:26:48;97662.53;;;15.81;70.16
71938;BME280;59810;48.800;9.086;2023-07-31T01:29:23;97666.34;;;15.80;69.87
71938;BME280;59810;48.800;9.086;2023-07-31T01:31:53;97664.44;;;15.81;69.86
71938;BME280;59810;48.800;9.086;2023-07-31T01:34:21;97666.88;;;15.82;69.54
71938;BME280;59810;48.800;9.086;2023-07-31T01:36:47;97663.34;;;15.82;69.80
71938;BME280;59810;48.800;9.086;2023-07-31T01:39:12;97654.41;;;15.76;69.81
71938;BME280;59810;48.800;9.086;2023-07-31T01:41:38;97660.41;;;15.73;70.04
71938;BME280;59810;48.800;9.086;2023-07-31T01:44:03;97650.31;;;15.74;70.20
71938;BME280;59810;48.800;9.086;2023-07-31T01:46:29;97653.34;;;15.72;70.34
71938;BME280;59810;48.800;9.086;2023-07-31T01:48:54;97648.41;;;15.74;70.07
71938;BME280;59810;48.800;9.086;2023-07-31T01:51:19;97647.31;;;15.75;70.02
71938;BME280;59810;48.800;9.086;2023-07-31T01:53:44;97639.16;;;15.75;69.71
71938;BME280;59810;48.800;9.086;2023-07-31T01:56:10;97646.22;;;15.76;69.89
71938;BME280;59810;48.800;9.086;2023-07-31T01:58:35;97629.88;;;15.76;69.57
71938;BME280;59810;48.800;9.086;2023-07-31T02:01:00;97639.69;;;15.77;69.91
71938;BME280;59810;48.800;9.086;2023-07-31T02:03:26;97633.44;;;15.77;69.88
71938;BME280;59810;48.800;9.086;2023-07-31T02:05:51;97634.00;;;15.74;69.43
71938;BME280;59810;48.800;9.086;2023-07-31T02:08:16;97630.19;;;15.75;69.41
71938;BME280;59810;48.800;9.086;2023-07-31T02:10:42;97630.75;;;15.72;69.52
71938;BME280;59810;48.800;9.086;2023-07-31T02:13:07;97623.69;;;15.71;70.16
71938;BME280;59810;48.800;9.086;2023-07-31T02:15:33;97617.94;;;15.72;69.78
71938;BME280;59810;48.800;9.086;2023-07-31T02:17:59;97618.56;;;15.64;69.95
71938;BME280;59810;48.800;9.086;2023-07-31T02:20:24;97608.75;;;15.63;70.18
71938;BME280;59810;48.800;9.086;2023-07-31T02:22:50;97606.59;;;15.60;70.08
71938;BME280;59810;48.800;9.086;2023-07-31T02:25:15;97610.94;;;15.56;69.97
71938;BME280;59810;48.800;9.086;2023-07-31T02:27:41;97608.50;;;15.54;70.50
71938;BME280;59810;48.800;9.086;2023-07-31T02:30:06;97603.09;;;15.49;70.94
71938;BME280;59810;48.800;9.086;2023-07-31T02:32:32;97598.50;;;15.45;71.09
71938;BME280;59810;48.800;9.086;2023-07-31T02:34:57;97594.44;;;15.42;71.11
71938;BME280;59810;48.800;9.086;2023-07-31T02:37:23;97590.13;;;15.36;71.47
71938;BME280;59810;48.800;9.086;2023-07-31T02:39:48;97590.13;;;15.36;71.09
71938;BME280;59810;48.800;9.086;2023-07-31T02:42:14;97594.22;;;15.34;71.18
71938;BME280;59810;48.800;9.086;2023-07-31T02:44:40;97587.69;;;15.35;71.00
71938;BME280;59810;48.800;9.086;2023-07-31T02:47:05;97593.66;;;15.37;71.20
71938;BME280;59810;48.800;9.086;2023-07-31T02:49:30;97588.75;;;15.39;70.75
71938;BME280;59810;48.800;9.086;2023-07-31T02:51:56;97581.13;;;15.41;70.18
71938;BME280;59810;48.800;9.086;2023-07-31T02:54:21;97576.50;;;15.41;70.41
71938;BME280;59810;48.800;9.086;2023-07-31T02:56:47;97572.16;;;15.40;70.17
71938;BME280;59810;48.800;9.086;2023-07-31T02:59:12;97585.19;;;15.43;70.14
71938;BME280;59810;48.800;9.086;2023-07-31T03:01:38;97586.00;;;15.44;69.31
71938;BME280;59810;48.800;9.086;2023-07-31T03:04:03;97575.63;;;15.46;69.22
71938;BME280;59810;48.800;9.086;2023-07-31T03:06:29;97579.16;;;15.46;69.35
71938;BME280;59810;48.800;9.086;2023-07-31T03:08:54;97589.25;;;15.46;69.15
71938;BME280;59810;48.800;9.086;2023-07-31T03:11:20;97586.56;;;15.41;70.18
71938;BME280;59810;48.800;9.086;2023-07-31T03:13:45;97591.44;;;15.44;69.42
71938;BME280;59810;48.800;9.086;2023-07-31T03:16:10;97589.81;;;15.43;69.40
71938;BME280;59810;48.800;9.086;2023-07-31T03:18:36;97573.47;;;15.43;69.14
71938;BME280;59810;48.800;9.086;2023-07-31T03:21:01;97576.16;;;15.48;69.00
71938;BME280;59810;48.800;9.086;2023-07-31T03:23:26;97574.50;;;15.52;69.20
71938;BME280;59810;48.800;9.086;2023-07-31T03:25:56;97577.25;;;15.47;69.20
71938;BME280;59810;48.800;9.086;2023-07-31T03:28:21;97586.81;;;15.44;69.12
71938;BME280;59810;48.800;9.086;2023-07-31T03:30:47;97584.66;;;15.41;69.47
71938;BME280;59810;48.800;9.086;2023-07-31T03:33:12;97588.75;;;15.39;69.55
71938;BME280;59810;48.800;9.086;2023-07-31T03:35:37;97586.31;;;15.37;69.54
71938;BME280;59810;48.800;9.086;2023-07-31T03:38:03;97586.06;;;15.34;69.51
71938;BME280;59810;48.800;9.086;2023-07-31T03:40:28;97589.88;;;15.33;69.70
71938;BME280;59810;48.800;9.086;2023-07-31T03:42:53;97593.13;;;15.35;69.76
71938;BME280;59810;48.800;9.086;2023-07-31T03:45:19;97593.13;;;15.35;69.36
71938;BME280;59810;48.800;9.086;2023-07-31T03:47:44;97596.38;;;15.37;69.57
71938;BME280;59810;48.800;9.086;2023-07-31T03:50:10;97595.84;;;15.35;69.65
71938;BME280;59810;48.800;9.086;2023-07-31T03:52:35;97596.38;;;15.37;69.58
71938;BME280;59810;48.800;9.086;2023-07-31T03:55:01;97589.56;;;15.39;69.28
71938;BME280;59810;48.800;9.086;2023-07-31T03:57:26;97598.25;;;15.41;69.31
71938;BME280;59810;48.800;9.086;2023-07-31T03:59:52;97594.44;;;15.42;69.20
71938;BME280;59810;48.800;9.086;2023-07-31T04:02:17;97598.50;;;15.45;69.23
71938;BME280;59810;48.800;9.086;2023-07-31T04:04:43;97607.47;;;15.45;69.07
71938;BME280;59810;48.800;9.086;2023-07-31T04:07:09;97597.66;;;15.49;68.90
71938;BME280;59810;48.800;9.086;2023-07-31T04:09:34;97588.38;;;15.50;68.87
71938;BME280;59810;48.800;9.086;2023-07-31T04:11:59;97594.94;;;15.49;69.23
71938;BME280;59810;48.800;9.086;2023-07-31T04:14:25;97583.75;;;15.51;68.64
71938;BME280;59810;48.800;9.086;2023-07-31T04:16:50;97582.91;;;15.55;68.33
71938;BME280;59810;48.800;9.086;2023-07-31T04:19:15;97584.53;;;15.56;68.33
71938;BME280;59810;48.800;9.086;2023-07-31T04:21:42;97583.19;;;15.59;68.24
71938;BME280;59810;48.800;9.086;2023-07-31T04:24:07;97571.19;;;15.60;68.34
71938;BME280;59810;48.800;9.086;2023-07-31T04:26:32;97579.91;;;15.62;68.34
71938;BME280;59810;48.800;9.086;2023-07-31T04:28:58;97578.00;;;15.63;68.22
71938;BME280;59810;48.800;9.086;2023-07-31T04:31:23;97575.00;;;15.64;68.53
71938;BME280;59810;48.800;9.086;2023-07-31T04:33:48;97574.44;;;15.67;68.38
71938;BME280;59810;48.800;9.086;2023-07-31T04:36:14;97576.59;;;15.70;68.26
71938;BME280;59810;48.800;9.086;2023-07-31T04:38:39;97580.41;;;15.69;68.48
71938;BME280;59810;48.800;9.086;2023-07-31T04:41:06;97582.03;;;15.70;68.28
71938;BME280;59810;48.800;9.086;2023-07-31T04:43:31;97585.28;;;15.72;68.68
71938;BME280;59810;48.800;9.086;2023-07-31T04:45:57;97574.91;;;15.74;68.94
71938;BME280;59810;48.800;9.086;2023-07-31T04:48:23;97578.97;;;15.77;68.54
71938;BME280;59810;48.800;9.086;2023-07-31T04:50:48;97578.41;;;15.80;68.72
71938;BME280;59810;48.800;9.086;2023-07-31T04:53:14;97577.59;;;15.79;68.56
71938;BME280;59810;48.800;9.086;2023-07-31T04:55:39;97578.94;;;15.82;68.99
71938;BME280;59810;48.800;9.086;2023-07-31T04:58:05;97578.66;;;15.83;68.67
71938;BME280;59810;48.800;9.086;2023-07-31T05:00:30;97578.88;;;15.87;68.12
71938;BME280;59810;48.800;9.086;2023-07-31T05:02:55;97578.88;;;15.87;68.39
71938;BME280;59810;48.800;9.086;2023-07-31T05:05:21;97581.03;;;15.90;68.13
71938;BME280;59810;48.800;9.086;2023-07-31T05:07:46;97579.66;;;15.93;68.28
71938;BME280;59810;48.800;9.086;2023-07-31T05:10:11;97571.47;;;15.93;68.17
71938;BME280;59810;48.800;9.086;2023-07-31T05:12:37;97569.06;;;15.91;68.75
71938;BME280;59810;48.800;9.086;2023-07-31T05:15:03;97567.13;;;15.92;68.39
71938;BME280;59810;48.800;9.086;2023-07-31T05:17:28;97564.41;;;15.92;68.66
71938;BME280;59810;48.800;9.086;2023-07-31T05:19:53;97568.81;;;15.87;69.00
71938;BME280;59810;48.800;9.086;2023-07-31T05:22:19;97572.59;;;15.92;68.40
71938;BME280;59810;48.800;9.086;2023-07-31T05:24:44;97573.41;;;15.92;68.42
71938;BME280;59810;48.800;9.086;2023-07-31T05:27:09;97577.22;;;15.91;68.69
71938;BME280;59810;48.800;9.086;2023-07-31T05:29:35;97562.25;;;15.94;67.97
71938;BME280;59810;48.800;9.086;2023-07-31T05:32:01;97576.91;;;15.98;67.88
71938;BME280;59810;48.800;9.086;2023-07-31T05:34:26;97576.06;;;16.02;67.40
71938;BME280;59810;48.800;9.086;2023-07-31T05:36:51;97579.53;;;16.08;67.63
71938;BME280;59810;48.800;9.086;2023-07-31T05:39:17;97580.59;;;16.12;68.19
71938;BME280;59810;48.800;9.086;2023-07-31T05:41:43;97568.00;;;16.16;67.71
71938;BME280;59810;48.800;9.086;2023-07-31T05:44:08;97572.59;;;16.21;67.38
71938;BME280;59810;48.800;9.086;2023-07-31T05:46:34;97561.94;;;16.24;66.99
71938;BME280;59810;48.800;9.086;2023-07-31T05:48:59;97558.66;;;16.27;66.71
71938;BME280;59810;48.800;9.086;2023-07-31T05:51:26;97563.53;;;16.30;66.81
71938;BME280;59810;48.800;9.086;2023-07-31T05:53:51;97559.66;;;16.36;67.28
71938;BME280;59810;48.800;9.086;2023-07-31T05:56:16;97552.00;;;16.38;67.06
71938;BME280;59810;48.800;9.086;2023-07-31T05:58:42;97565.56;;;16.43;66.23
71938;BME280;59810;48.800;9.086;2023-07-31T06:01:07;97560.63;;;16.45;66.48
71938;BME280;59810;48.800;9.086;2023-07-31T06:03:32;97561.16;;;16.47;66.72
71938;BME280;59810;48.800;9.086;2023-07-31T06:05:58;97569.25;;;16.53;66.26
71938;BME280;59810;48.800;9.086;2023-07-31T06:08:23;97574.38;;;16.59;66.27
71938;BME280;59810;48.800;9.086;2023-07-31T06:10:48;97571.38;;;16.61;66.99
71938;BME280;59810;48.800;9.086;2023-07-31T06:13:14;97572.91;;;16.72;66.75
71938;BME280;59810;48.800;9.086;2023-07-31T06:15:39;97571.72;;;16.78;66.19
71938;BME280;59810;48.800;9.086;2023-07-31T06:18:04;97567.53;;;16.86;65.70
71938;BME280;59810;48.800;9.086;2023-07-31T06:20:35;97556.84;;;16.89;65.32
71938;BME280;59810;48.800;9.086;2023-07-31T06:23:01;97570.47;;;16.94;65.82
71938;BME280;59810;48.800;9.086;2023-07-31T06:25:26;97564.56;;;17.06;65.78
71938;BME280;59810;48.800;9.086;2023-07-31T06:27:52;97575.84;;;17.18;65.07
71938;BME280;59810;48.800;9.086;2023-07-31T06:30:17;97573.28;;;17.27;64.60
71938;BME280;59810;48.800;9.086;2023-07-31T06:32:42;97568.88;;;17.31;64.43
71938;BME280;59810;48.800;9.086;2023-07-31T06:35:08;97573.13;;;17.37;64.43
71938;BME280;59810;48.800;9.086;2023-07-31T06:37:33;97577.50;;;17.38;64.76
71938;BME280;59810;48.800;9.086;2023-07-31T06:39:59;97569.09;;;17.34;64.76
71938;BME280;59810;48.800;9.086;2023-07-31T06:42:24;97575.28;;;17.40;64.85
71938;BME280;59810;48.800;9.086;2023-07-31T06:44:49;97572.19;;;17.47;64.25
71938;BME280;59810;48.800;9.086;2023-07-31T06:47:15;97572.03;;;17.57;63.90
71938;BME280;59810;48.800;9.086;2023-07-31T06:49:40;97568.41;;;17.61;63.55
71938;BME280;59810;48.800;9.086;2023-07-31T06:52:06;97572.94;;;17.71;62.93
71938;BME280;59810;48.800;9.086;2023-07-31T06:54:31;97579.94;;;17.77;63.06
71938;BME280;59810;48.800;9.086;2023-07-31T06:56:57;97584.78;;;17.80;62.74
71938;BME280;59810;48.800;9.086;2023-07-31T06:59:22;97575.78;;;17.80;62.68
71938;BME280;59810;48.800;9.086;2023-07-31T07:01:47;97584.50;;;17.82;62.39
71938;BME280;59810;48.800;9.086;2023-07-31T07:04:13;97579.13;;;17.77;62.72
71938;BME280;59810;48.800;9.086;2023-07-31T07:06:39;97577.63;;;17.84;62.20
71938;BME280;59810;48.800;9.086;2023-07-31T07:09:04;97574.75;;;17.94;61.96
71938;BME280;59810;48.800;9.086;2023-07-31T07:11:29;97580.13;;;17.99;61.81
71938;BME280;59810;48.800;9.086;2023-07-31T07:13:54;97574.97;;;18.12;61.16
71938;BME280;59810;48.800;9.086;2023-07-31T07:16:20;97578.38;;;18.22;60.78
71938;BME280;59810;48.800;9.086;2023-07-31T07:18:45;97570.78;;;18.33;60.41
71938;BME280;59810;48.800;9.086;2023-07-31T07:21:11;97567.56;;;18.45;60.54
71938;BME280;59810;48.800;9.086;2023-07-31T07:23:40;97559.56;;;18.48;60.16
71938;BME280;59810;48.800;9.086;2023-07-31T07:26:06;97561.19;;;18.49;59.70
71938;BME280;59810;48.800;9.086;2023-07-31T07:28:31;97562.50;;;18.52;60.14
71938;BME280;59810;48.800;9.086;2023-07-31T07:30:56;97552.38;;;18.52;59.33
71938;BME280;59810;48.800;9.086;2023-07-31T07:33:22;97561.38;;;18.53;59.68
71938;BME280;59810;48.800;9.086;2023-07-31T07:35:48;97563.84;;;18.54;60.58
71938;BME280;59810;48.800;9.086;2023-07-31T07:38:14;97553.72;;;18.55;59.75
71938;BME280;59810;48.800;9.086;2023-07-31T07:40:40;97549.56;;;18.57;60.04
71938;BME280;59810;48.800;9.086;2023-07-31T07:43:06;97558.78;;;18.61;60.48
71938;BME280;59810;48.800;9.086;2023-07-31T07:45:31;97552.72;;;18.64;61.05
71938;BME280;59810;48.800;9.086;2023-07-31T07:47:56;97556.13;;;18.56;59.27
71938;BME280;59810;48.800;9.086;2023-07-31T07:50:23;97559.44;;;18.53;59.55
71938;BME280;59810;48.800;9.086;2023-07-31T07:52:48;97560.88;;;18.51;59.19
71938;BME280;59810;48.800;9.086;2023-07-31T07:55:13;97550.44;;;18.53;59.38
71938;BME280;59810;48.800;9.086;2023-07-31T07:57:38;97552.50;;;18.61;59.21
71938;BME280;59810;48.800;9.086;2023-07-31T08:00:04;97551.28;;;18.81;58.72
71938;BME280;59810;48.800;9.086;2023-07-31T08:02:30;97550.09;;;18.87;58.10
71938;BME280;59810;48.800;9.086;2023-07-31T08:04:56;97540.53;;;18.84;58.50
71938;BME280;59810;48.800;9.086;2023-07-31T08:07:21;97538.53;;;18.76;58.70
71938;BME280;59810;48.800;9.086;2023-07-31T08:09:47;97543.28;;;18.71;59.34
71938;BME280;59810;48.800;9.086;2023-07-31T08:12:12;97550.66;;;18.56;59.39
71938;BME280;59810;48.800;9.086;2023-07-31T08:14:37;97559.75;;;18.52;59.18
71938;BME280;59810;48.800;9.086;2023-07-31T08:17:03;97544.25;;;18.47;59.27
71938;BME280;59810;48.800;9.086;2023-07-31T08:19:28;97536.25;;;18.51;59.84
71938;BME280;59810;48.800;9.086;2023-07-31T08:21:53;97531.66;;;18.65;60.16
71938;BME280;59810;48.800;9.086;2023-07-31T08:24:19;97530.63;;;18.88;59.85
71938;BME280;59810;48.800;9.086;2023-07-31T08:26:44;97530.97;;;19.09;57.65
71938;BME280;59810;48.800;9.086;2023-07-31T08:29:09;97525.09;;;19.16;57.49
71938;BME280;59810;48.800;9.086;2023-07-31T08:31:35;97531.16;;;19.26;57.50
71938;BME280;59810;48.800;9.086;2023-07-31T08:34:00;97529.34;;;19.22;57.15
71938;BME280;59810;48.800;9.086;2023-07-31T08:36:25;97536.44;;;19.23;57.17
71938;BME280;59810;48.800;9.086;2023-07-31T08:38:51;97523.75;;;19.27;57.56
71938;BME280;59810;48.800;9.086;2023-07-31T08:41:16;97538.94;;;19.33;57.71
71938;BME280;59810;48.800;9.086;2023-07-31T08:43:49;97528.38;;;19.40;57.79
71938;BME280;59810;48.800;9.086;2023-07-31T08:46:15;97518.53;;;19.39;56.64
71938;BME280;59810;48.800;9.086;2023-07-31T08:48:42;97523.00;;;19.35;56.89
71938;BME280;59810;48.800;9.086;2023-07-31T08:51:08;97522.41;;;19.38;56.95
71938;BME280;59810;48.800;9.086;2023-07-31T08:53:33;97523.75;;;19.49;56.59
71938;BME280;59810;48.800;9.086;2023-07-31T08:55:59;97528.88;;;19.42;56.90
71938;BME280;59810;48.800;9.086;2023-07-31T08:58:25;97525.44;;;19.37;56.93
71938;BME280;59810;48.800;9.086;2023-07-31T09:00:54;97524.63;;;19.36;56.50
71938;BME280;59810;48.800;9.086;2023-07-31T09:03:22;97523.31;;;19.34;57.12
71938;BME280;59810;48.800;9.086;2023-07-31T09:05:48;97515.22;;;19.28;57.50
71938;BME280;59810;48.800;9.086;2023-07-31T09:08:18;97513.00;;;19.31;57.91
71938;BME280;59810;48.800;9.086;2023-07-31T09:10:46;97501.34;;;19.25;57.75
71938;BME280;59810;48.800;9.086;2023-07-31T09:13:12;97503.78;;;19.26;58.08
71938;BME280;59810;48.800;9.086;2023-07-31T09:15:38;97495.25;;;19.28;58.10
71938;BME280;59810;48.800;9.086;2023-07-31T09:18:06;97503.09;;;19.43;58.57
71938;BME280;59810;48.800;9.086;2023-07-31T09:20:32;97510.38;;;19.62;57.79
71938;BME280;59810;48.800;9.086;2023-07-31T09:23:05;97497.53;;;19.71;57.18
71938;BME280;59810;48.800;9.086;2023-07-31T09:25:31;97500.63;;;19.78;56.85
71938;BME280;59810;48.800;9.086;2023-07-31T09:27:59;97500.13;;;19.98;57.31
71938;BME280;59810;48.800;9.086;2023-07-31T09:30:25;97498.00;;;20.17;54.90
71938;BME280;59810;48.800;9.086;2023-07-31T09:32:51;97487.38;;;20.25;55.62
71938;BME280;59810;48.800;9.086;2023-07-31T09:35:29;97501.13;;;20.33;54.79
71938;BME280;59810;48.800;9.086;2023-07-31T09:37:58;97487.41;;;20.33;53.31
71938;BME280;59810;48.800;9.086;2023-07-31T09:40:31;97493.75;;;20.42;54.01
71938;BME280;59810;48.800;9.086;2023-07-31T09:42:59;97487.78;;;20.40;53.64
71938;BME280;59810;48.800;9.086;2023-07-31T09:45:25;97476.38;;;20.56;53.16
71938;BME280;59810;48.800;9.086;2023-07-31T09:47:51;97470.28;;;20.67;53.63
71938;BME280;59810;48.800;9.086;2023-07-31T09:50:16;97464.84;;;20.85;52.77
71938;BME280;59810;48.800;9.086;2023-07-31T09:52:42;97445.78;;;20.97;53.35
71938;BME280;59810;48.800;9.086;2023-07-31T09:55:09;97448.53;;;21.05;54.01
71938;BME280;59810;48.800;9.086;2023-07-31T09:57:44;97453.41;;;21.17;51.89
71938;BME280;59810;48.800;9.086;2023-07-31T10:00:10;97463.59;;;21.17;52.66
71938;BME280;59810;48.800;9.086;2023-07-31T10:02:37;97463.59;;;21.25;52.23
71938;BME280;59810;48.800;9.086;2023-07-31T10:05:03;97447.75;;;21.22;52.14
71938;BME280;59810;48.800;9.086;2023-07-31T10:07:30;97435.97;;;21.30;52.25
71938;BME280;59810;48.800;9.086;2023-07-31T10:10:00;97444.69;;;21.41;52.51
71938;BME280;59810;48.800;9.086;2023-07-31T10:12:27;97446.44;;;21.46;51.25
71938;BME280;59810;48.800;9.086;2023-07-31T10:14:56;97445.50;;;21.50;51.09
71938;BME280;59810;48.800;9.086;2023-07-31T10:17:22;97441.31;;;21.35;50.27
71938;BME280;59810;48.800;9.086;2023-07-31T10:19:49;97441.31;;;21.35;50.84
71938;BME280;59810;48.800;9.086;2023-07-31T10:22:15;97434.38;;;21.47;51.11
71938;BME280;59810;48.800;9.086;2023-07-31T10:24:42;97425.91;;;21.60;50.00
71938;BME280;59810;48.800;9.086;2023-07-31T10:27:08;97428.16;;;21.67;50.21
71938;BME280;59810;48.800;9.086;2023-07-31T10:29:35;97420.72;;;21.67;51.12
71938;BME280;59810;48.800;9.086;2023-07-31T10:32:02;97422.16;;;21.73;49.60
71938;BME280;59810;48.800;9.086;2023-07-31T10:34:31;97411.03;;;21.61;49.27
71938;BME280;59810;48.800;9.086;2023-07-31T10:37:28;97407.13;;;21.80;50.51
71938;BME280;59810;48.800;9.086;2023-07-31T10:39:59;97425.53;;;21.88;49.43
71938;BME280;59810;48.800;9.086;2023-07-31T10:42:30;97423.41;;;21.93;49.42
71938;BME280;59810;48.800;9.086;2023-07-31T10:45:08;97410.81;;;21.92;48.79
71938;BME280;59810;48.800;9.086;2023-07-31T10:47:40;97426.75;;;22.16;48.88
71938;BME280;59810;48.800;9.086;2023-07-31T10:52:46;97424.44;;;22.56;48.35
71938;BME280;59810;48.800;9.086;2023-07-31T10:55:33;97427.28;;;22.68;46.13
71938;BME280;59810;48.800;9.086;2023-07-31T10:58:14;97415.09;;;22.78;47.22
71938;BME280;59810;48.800;9.086;2023-07-31T11:00:44;97402.91;;;22.88;46.74
71938;BME280;59810;48.800;9.086;2023-07-31T11:03:12;97407.53;;;22.66;47.53
71938;BME280;59810;48.800;9.086;2023-07-31T11:05:59;97404.56;;;22.51;47.69
71938;BME280;59810;48.800;9.086;2023-07-31T11:08:33;97411.22;;;22.50;48.52
71938;BME280;59810;48.800;9.086;2023-07-31T11:13:39;97410.69;;;22.27;48.84
71938;BME280;59810;48.800;9.086;2023-07-31T11:16:04;97406.31;;;22.26;48.41
71938;BME280;59810;48.800;9.086;2023-07-31T11:18:30;97403.84;;;22.33;49.72
71938;BME280;59810;48.800;9.086;2023-07-31T11:20:55;97410.69;;;22.27;48.96
71938;BME280;59810;48.800;9.086;2023-07-31T11:23:21;97399.72;;;22.18;48.98
71938;BME280;59810;48.800;9.086;2023-07-31T11:25:47;97401.69;;;22.18;49.21
71938;BME280;59810;48.800;9.086;2023-07-31T11:28:14;97404.63;;;22.13;48.99
71938;BME280;59810;48.800;9.086;2023-07-31T11:30:41;97408.66;;;22.07;48.56
71938;BME280;59810;48.800;9.086;2023-07-31T11:33:07;97396.13;;;21.80;49.51
71938;BME280;59810;48.800;9.086;2023-07-31T11:35:34;97396.94;;;21.80;50.70
71938;BME280;59810;48.800;9.086;2023-07-31T11:38:00;97406.81;;;21.81;50.83
71938;BME280;59810;48.800;9.086;2023-07-31T11:40:27;97403.88;;;21.86;50.67
71938;BME280;59810;48.800;9.086;2023-07-31T11:42:56;97397.09;;;21.84;50.89
71938;BME280;59810;48.800;9.086;2023-07-31T11:45:25;97389.19;;;21.82;50.88
71938;BME280;59810;48.800;9.086;2023-07-31T11:47:51;97393.69;;;21.78;50.70
71938;BME280;59810;48.800;9.086;2023-07-31T11:50:16;97377.22;;;21.69;51.18
71938;BME280;59810;48.800;9.086;2023-07-31T11:52:43;97379.00;;;21.74;51.05
71938;BME280;59810;48.800;9.086;2023-07-31T11:55:10;97371.38;;;21.88;51.55
71938;BME280;59810;48.800;9.086;2023-07-31T11:57:38;97364.06;;;21.92;51.62
71938;BME280;59810;48.800;9.086;2023-07-31T12:00:06;97360.31;;;21.97;51.65
71938;BME280;59810;48.800;9.086;2023-07-31T12:02:32;97356.25;;;22.03;50.67
71938;BME280;59810;48.800;9.086;2023-07-31T12:04:57;97351.59;;;22.03;50.85
71938;BME280;59810;48.800;9.086;2023-07-31T12:07:24;97356.56;;;22.01;50.90
71938;BME280;59810;48.800;9.086;2023-07-31T12:09:56;97354.94;;;22.09;51.58
71938;BME280;59810;48.800;9.086;2023-07-31T12:12:23;97351.88;;;22.11;50.88
71938;BME280;59810;48.800;9.086;2023-07-31T12:14:49;97352.38;;;22.13;52.04
71938;BME280;59810;48.800;9.086;2023-07-31T12:17:16;97353.13;;;22.22;50.67
71938;BME280;59810;48.800;9.086;2023-07-31T12:19:42;97350.09;;;22.15;50.88
71938;BME280;59810;48.800;9.086;2023-07-31T12:22:14;97353.31;;;22.17;51.18
71938;BME280;59810;48.800;9.086;2023-07-31T12:24:42;97341.16;;;22.18;51.07
71938;BME280;59810;48.800;9.086;2023-07-31T12:27:13;97344.53;;;22.23;51.24
71938;BME280;59810;48.800;9.086;2023-07-31T12:29:41;97338.22;;;22.23;50.18
71938;BME280;59810;48.800;9.086;2023-07-31T12:34:45;97326.66;;;22.00;50.92
71938;BME280;59810;48.800;9.086;2023-07-31T12:37:10;97325.38;;;21.97;49.91
71938;BME280;59810;48.800;9.086;2023-07-31T12:39:36;97328.13;;;21.97;51.06
71938;BME280;59810;48.800;9.086;2023-07-31T12:42:01;97327.31;;;21.97;50.44
71938;BME280;59810;48.800;9.086;2023-07-31T12:44:27;97328.19;;;21.89;49.89
71938;BME280;59810;48.800;9.086;2023-07-31T12:46:52;97324.16;;;21.86;50.68
71938;BME280;59810;48.800;9.086;2023-07-31T12:49:18;97314.31;;;21.77;50.48
71938;BME280;59810;48.800;9.086;2023-07-31T12:51:43;97310.75;;;21.76;50.37
71938;BME280;59810;48.800;9.086;2023-07-31T12:54:08;97308.00;;;21.85;50.52
71938;BME280;59810;48.800;9.086;2023-07-31T12:56:33;97294.88;;;21.90;50.79
71938;BME280;59810;48.800;9.086;2023-07-31T12:58:59;97290.66;;;21.93;49.96
71938;BME280;59810;48.800;9.086;2023-07-31T13:01:24;97287.69;;;22.07;49.78
71938;BME280;59810;48.800;9.086;2023-07-31T13:03:49;97300.25;;;22.16;50.13
71938;BME280;59810;48.800;9.086;2023-07-31T13:06:15;97296.31;;;22.26;50.44